sensor_id;sensor_type;location;lat;lon;timestamp;P1;durP1;ratioP1;P2;durP2;ratioP2
21554;SDS011;10938;44.794;-0.676;2022-12-10T00:00:38;28.05;;;16.30;;
21554;SDS011;10938;44.794;-0.676;2022-12-10T00:03:04;24.63;;;14.25;;
21554;SDS011;10938;44.794;-0.676;2022-12-10T00:05:32;28.02;;;16.63;;
21554;SDS011;10938;44.794;-0.676;2022-12-10T00:07:58;30.98;;;16.85;;
21554;SDS011;10938;44.794;-0.676;2022-12-10T00:10:24;29.63;;;16.42;;
21554;SDS011;10938;44.794;-0.676;2022-12-10T00:12:49;27.67;;;16.88;;
21554;SDS011;10938;44.794;-0.676;2022-12-10T00:15:15;28.92;;;17.88;;
21554;SDS011;10938;44.794;-0.676;2022-12-10T00:17:41;24.75;;;14.20;;
21554;SDS011;10938;44.794;-0.676;2022-12-10T00:20:07;34.42;;;20.40;;
21554;SDS011;10938;44.794;-0.676;2022-12-10T00:22:34;28.17;;;16.80;;
21554;SDS011;10938;44.794;-0.676;2022-12-10T00:25:00;26.17;;;16.77;;
21554;SDS011;10938;44.794;-0.676;2022-12-10T00:27:25;32.00;;;17.20;;
21554;SDS011;10938;44.794;-0.676;2022-12-10T00:29:51;30.85;;;18.15;;
21554;SDS011;10938;44.794;-0.676;2022-12-10T00:32:17;32.42;;;19.25;;
21554;SDS011;10938;44.794;-0.676;2022-12-10T00:34:42;32.00;;;18.92;;
21554;SDS011;10938;44.794;-0.676;2022-12-10T00:37:07;31.63;;;18.48;;
21554;SDS011;10938;44.794;-0.676;2022-12-10T00:39:33;30.75;;;17.63;;
21554;SDS011;10938;44.794;-0.676;2022-12-10T00:42:00;31.20;;;18.90;;
21554;SDS011;10938;44.794;-0.676;2022-12-10T00:44:26;33.45;;;20.33;;
21554;SDS011;10938;44.794;-0.676;2022-12-10T00:46:52;29.90;;;17.27;;
21554;SDS011;10938;44.794;-0.676;2022-12-10T00:49:17;29.23;;;17.65;;
21554;SDS011;10938;44.794;-0.676;2022-12-10T00:51:42;30.25;;;17.63;;
21554;SDS011;10938;44.794;-0.676;2022-12-10T00:54:08;35.10;;;20.33;;
21554;SDS011;10938;44.794;-0.676;2022-12-10T00:56:34;28.67;;;16.45;;
21554;SDS011;10938;44.794;-0.676;2022-12-10T00:59:00;24.83;;;14.98;;
21554;SDS011;10938;44.794;-0.676;2022-12-10T01:03:57;30.08;;;18.75;;
21554;SDS011;10938;44.794;-0.676;2022-12-10T01:06:28;27.40;;;16.25;;
21554;SDS011;10938;44.794;-0.676;2022-12-10T01:09:14;30.52;;;17.75;;
21554;SDS011;10938;44.794;-0.676;2022-12-10T01:11:42;30.17;;;17.90;;
21554;SDS011;10938;44.794;-0.676;2022-12-10T01:14:11;31.33;;;17.88;;
21554;SDS011;10938;44.794;-0.676;2022-12-10T01:16:39;24.58;;;15.98;;
21554;SDS011;10938;44.794;-0.676;2022-12-10T01:19:05;24.95;;;14.80;;
21554;SDS011;10938;44.794;-0.676;2022-12-10T01:21:31;27.90;;;16.70;;
21554;SDS011;10938;44.794;-0.676;2022-12-10T01:23:57;31.48;;;18.00;;
21554;SDS011;10938;44.794;-0.676;2022-12-10T01:26:27;28.23;;;16.65;;
21554;SDS011;10938;44.794;-0.676;2022-12-10T01:28:54;27.17;;;15.43;;
21554;SDS011;10938;44.794;-0.676;2022-12-10T01:31:22;22.95;;;14.57;;
21554;SDS011;10938;44.794;-0.676;2022-12-10T01:33:53;27.70;;;17.27;;
21554;SDS011;10938;44.794;-0.676;2022-12-10T01:36:19;28.63;;;17.15;;
21554;SDS011;10938;44.794;-0.676;2022-12-10T01:38:47;26.50;;;15.90;;
21554;SDS011;10938;44.794;-0.676;2022-12-10T01:41:23;26.52;;;15.38;;
21554;SDS011;10938;44.794;-0.676;2022-12-10T01:43:53;26.45;;;15.98;;
21554;SDS011;10938;44.794;-0.676;2022-12-10T01:46:21;28.88;;;17.15;;
21554;SDS011;10938;44.794;-0.676;2022-12-10T01:48:49;27.33;;;16.80;;
21554;SDS011;10938;44.794;-0.676;2022-12-10T01:51:16;23.33;;;14.93;;
21554;SDS011;10938;44.794;-0.676;2022-12-10T01:53:42;29.20;;;16.50;;
21554;SDS011;10938;44.794;-0.676;2022-12-10T01:56:10;25.83;;;15.13;;
21554;SDS011;10938;44.794;-0.676;2022-12-10T01:58:41;24.70;;;15.13;;
21554;SDS011;10938;44.794;-0.676;2022-12-10T02:01:08;25.92;;;14.80;;
21554;SDS011;10938;44.794;-0.676;2022-12-10T02:06:53;24.05;;;15.38;;
21554;SDS011;10938;44.794;-0.676;2022-12-10T02:09:38;26.33;;;15.73;;
21554;SDS011;10938;44.794;-0.676;2022-12-10T02:13:08;24.90;;;15.32;;
21554;SDS011;10938;44.794;-0.676;2022-12-10T02:15:20;23.70;;;14.50;;
21554;SDS011;10938;44.794;-0.676;2022-12-10T02:17:54;24.63;;;15.25;;
21554;SDS011;10938;44.794;-0.676;2022-12-10T02:20:24;27.30;;;15.55;;
21554;SDS011;10938;44.794;-0.676;2022-12-10T02:23:10;25.30;;;15.23;;
21554;SDS011;10938;44.794;-0.676;2022-12-10T02:31:17;25.92;;;15.30;;
21554;SDS011;10938;44.794;-0.676;2022-12-10T02:33:51;23.55;;;14.55;;
21554;SDS011;10938;44.794;-0.676;2022-12-10T02:36:21;28.73;;;16.13;;
21554;SDS011;10938;44.794;-0.676;2022-12-10T02:38:49;25.10;;;15.93;;
21554;SDS011;10938;44.794;-0.676;2022-12-10T02:41:22;25.42;;;14.75;;
21554;SDS011;10938;44.794;-0.676;2022-12-10T02:43:54;25.90;;;14.98;;
21554;SDS011;10938;44.794;-0.676;2022-12-10T02:46:23;29.92;;;15.70;;
21554;SDS011;10938;44.794;-0.676;2022-12-10T02:48:53;23.33;;;13.75;;
21554;SDS011;10938;44.794;-0.676;2022-12-10T02:51:20;23.30;;;14.93;;
21554;SDS011;10938;44.794;-0.676;2022-12-10T02:53:45;22.17;;;14.13;;
21554;SDS011;10938;44.794;-0.676;2022-12-10T02:56:27;22.30;;;14.10;;
21554;SDS011;10938;44.794;-0.676;2022-12-10T02:59:09;21.08;;;13.88;;
21554;SDS011;10938;44.794;-0.676;2022-12-10T03:02:06;23.15;;;13.82;;
21554;SDS011;10938;44.794;-0.676;2022-12-10T03:05:00;21.60;;;14.13;;
21554;SDS011;10938;44.794;-0.676;2022-12-10T03:07:35;23.10;;;14.80;;
21554;SDS011;10938;44.794;-0.676;2022-12-10T03:10:12;24.17;;;13.65;;
21554;SDS011;10938;44.794;-0.676;2022-12-10T03:12:58;23.77;;;14.52;;
21554;SDS011;10938;44.794;-0.676;2022-12-10T03:15:26;23.20;;;14.23;;
21554;SDS011;10938;44.794;-0.676;2022-12-10T03:17:55;22.15;;;14.52;;
21554;SDS011;10938;44.794;-0.676;2022-12-10T03:20:22;22.70;;;13.98;;
21554;SDS011;10938;44.794;-0.676;2022-12-10T03:22:50;22.98;;;14.57;;
21554;SDS011;10938;44.794;-0.676;2022-12-10T03:25:17;24.58;;;15.18;;
21554;SDS011;10938;44.794;-0.676;2022-12-10T03:27:53;23.17;;;14.32;;
21554;SDS011;10938;44.794;-0.676;2022-12-10T03:30:22;25.92;;;14.68;;
21554;SDS011;10938;44.794;-0.676;2022-12-10T03:32:47;23.00;;;13.70;;
21554;SDS011;10938;44.794;-0.676;2022-12-10T03:35:14;25.70;;;15.05;;
21554;SDS011;10938;44.794;-0.676;2022-12-10T03:37:43;23.25;;;14.40;;
21554;SDS011;10938;44.794;-0.676;2022-12-10T03:40:09;25.83;;;14.25;;
21554;SDS011;10938;44.794;-0.676;2022-12-10T03:42:37;24.70;;;14.68;;
21554;SDS011;10938;44.794;-0.676;2022-12-10T03:45:05;22.10;;;14.50;;
21554;SDS011;10938;44.794;-0.676;2022-12-10T03:47:31;25.30;;;15.02;;
21554;SDS011;10938;44.794;-0.676;2022-12-10T03:50:00;24.90;;;14.23;;
21554;SDS011;10938;44.794;-0.676;2022-12-10T03:52:30;23.52;;;15.10;;
21554;SDS011;10938;44.794;-0.676;2022-12-10T03:55:08;25.55;;;14.30;;
21554;SDS011;10938;44.794;-0.676;2022-12-10T03:57:34;24.45;;;15.75;;
21554;SDS011;10938;44.794;-0.676;2022-12-10T04:00:00;21.92;;;14.63;;
21554;SDS011;10938;44.794;-0.676;2022-12-10T04:02:25;24.45;;;14.55;;
21554;SDS011;10938;44.794;-0.676;2022-12-10T04:04:51;25.00;;;14.77;;
21554;SDS011;10938;44.794;-0.676;2022-12-10T04:07:20;25.45;;;15.15;;
21554;SDS011;10938;44.794;-0.676;2022-12-10T04:10:04;26.60;;;15.55;;
21554;SDS011;10938;44.794;-0.676;2022-12-10T04:12:30;23.63;;;15.35;;
21554;SDS011;10938;44.794;-0.676;2022-12-10T04:14:55;24.33;;;14.65;;
21554;SDS011;10938;44.794;-0.676;2022-12-10T04:17:40;24.75;;;15.50;;
21554;SDS011;10938;44.794;-0.676;2022-12-10T04:20:05;29.50;;;17.70;;
21554;SDS011;10938;44.794;-0.676;2022-12-10T04:22:51;25.55;;;14.45;;
21554;SDS011;10938;44.794;-0.676;2022-12-10T04:25:35;22.55;;;14.00;;
21554;SDS011;10938;44.794;-0.676;2022-12-10T04:28:19;25.52;;;15.95;;
21554;SDS011;10938;44.794;-0.676;2022-12-10T04:30:46;24.33;;;15.20;;
21554;SDS011;10938;44.794;-0.676;2022-12-10T04:33:11;23.27;;;14.48;;
21554;SDS011;10938;44.794;-0.676;2022-12-10T04:35:37;24.40;;;14.60;;
21554;SDS011;10938;44.794;-0.676;2022-12-10T04:38:02;23.90;;;14.55;;
21554;SDS011;10938;44.794;-0.676;2022-12-10T04:40:28;21.50;;;13.98;;
21554;SDS011;10938;44.794;-0.676;2022-12-10T04:42:53;21.88;;;14.10;;
21554;SDS011;10938;44.794;-0.676;2022-12-10T04:45:19;22.52;;;14.20;;
21554;SDS011;10938;44.794;-0.676;2022-12-10T04:47:44;23.20;;;14.07;;
21554;SDS011;10938;44.794;-0.676;2022-12-10T04:50:10;24.02;;;14.80;;
21554;SDS011;10938;44.794;-0.676;2022-12-10T04:52:35;20.83;;;13.48;;
21554;SDS011;10938;44.794;-0.676;2022-12-10T04:55:01;24.88;;;15.07;;
21554;SDS011;10938;44.794;-0.676;2022-12-10T04:57:26;22.35;;;13.65;;
21554;SDS011;10938;44.794;-0.676;2022-12-10T04:59:52;21.60;;;14.38;;
21554;SDS011;10938;44.794;-0.676;2022-12-10T05:02:17;26.65;;;15.40;;
21554;SDS011;10938;44.794;-0.676;2022-12-10T05:04:44;20.67;;;13.70;;
21554;SDS011;10938;44.794;-0.676;2022-12-10T05:07:10;20.92;;;14.07;;
21554;SDS011;10938;44.794;-0.676;2022-12-10T05:09:35;20.42;;;14.23;;
21554;SDS011;10938;44.794;-0.676;2022-12-10T05:12:02;24.80;;;14.23;;
21554;SDS011;10938;44.794;-0.676;2022-12-10T05:14:28;20.55;;;13.93;;
21554;SDS011;10938;44.794;-0.676;2022-12-10T05:16:53;20.77;;;13.85;;
21554;SDS011;10938;44.794;-0.676;2022-12-10T05:19:19;23.83;;;14.02;;
21554;SDS011;10938;44.794;-0.676;2022-12-10T05:21:48;20.25;;;12.73;;
21554;SDS011;10938;44.794;-0.676;2022-12-10T05:24:32;20.90;;;13.73;;
21554;SDS011;10938;44.794;-0.676;2022-12-10T05:27:00;22.92;;;14.60;;
21554;SDS011;10938;44.794;-0.676;2022-12-10T05:29:26;23.40;;;13.63;;
21554;SDS011;10938;44.794;-0.676;2022-12-10T05:31:51;22.15;;;13.70;;
21554;SDS011;10938;44.794;-0.676;2022-12-10T05:34:18;25.45;;;15.57;;
21554;SDS011;10938;44.794;-0.676;2022-12-10T05:36:43;23.15;;;14.30;;
21554;SDS011;10938;44.794;-0.676;2022-12-10T05:39:09;21.95;;;13.90;;
21554;SDS011;10938;44.794;-0.676;2022-12-10T05:41:36;26.15;;;14.70;;
21554;SDS011;10938;44.794;-0.676;2022-12-10T05:44:05;21.27;;;13.70;;
21554;SDS011;10938;44.794;-0.676;2022-12-10T05:46:31;24.25;;;14.13;;
21554;SDS011;10938;44.794;-0.676;2022-12-10T05:48:59;25.45;;;14.40;;
21554;SDS011;10938;44.794;-0.676;2022-12-10T05:51:27;23.00;;;14.57;;
21554;SDS011;10938;44.794;-0.676;2022-12-10T05:53:54;21.10;;;13.93;;
21554;SDS011;10938;44.794;-0.676;2022-12-10T05:56:22;23.27;;;14.93;;
21554;SDS011;10938;44.794;-0.676;2022-12-10T05:58:50;21.63;;;14.05;;
21554;SDS011;10938;44.794;-0.676;2022-12-10T06:01:18;23.30;;;14.82;;
21554;SDS011;10938;44.794;-0.676;2022-12-10T06:03:45;22.48;;;13.98;;
21554;SDS011;10938;44.794;-0.676;2022-12-10T06:06:12;24.38;;;14.65;;
21554;SDS011;10938;44.794;-0.676;2022-12-10T06:08:38;21.85;;;14.38;;
21554;SDS011;10938;44.794;-0.676;2022-12-10T06:11:06;18.83;;;13.38;;
21554;SDS011;10938;44.794;-0.676;2022-12-10T06:13:33;23.92;;;14.15;;
21554;SDS011;10938;44.794;-0.676;2022-12-10T06:15:59;20.65;;;13.80;;
21554;SDS011;10938;44.794;-0.676;2022-12-10T06:18:28;22.58;;;13.00;;
21554;SDS011;10938;44.794;-0.676;2022-12-10T06:20:53;23.58;;;14.93;;
21554;SDS011;10938;44.794;-0.676;2022-12-10T06:23:20;24.60;;;15.18;;
21554;SDS011;10938;44.794;-0.676;2022-12-10T06:25:46;24.10;;;16.00;;
21554;SDS011;10938;44.794;-0.676;2022-12-10T06:28:13;27.23;;;14.25;;
21554;SDS011;10938;44.794;-0.676;2022-12-10T06:30:45;22.33;;;14.38;;
21554;SDS011;10938;44.794;-0.676;2022-12-10T06:33:11;23.67;;;14.98;;
21554;SDS011;10938;44.794;-0.676;2022-12-10T06:35:37;23.35;;;15.02;;
21554;SDS011;10938;44.794;-0.676;2022-12-10T06:38:03;21.85;;;14.23;;
21554;SDS011;10938;44.794;-0.676;2022-12-10T06:40:29;22.80;;;15.13;;
21554;SDS011;10938;44.794;-0.676;2022-12-10T06:42:54;24.38;;;14.93;;
21554;SDS011;10938;44.794;-0.676;2022-12-10T06:45:20;20.70;;;14.25;;
21554;SDS011;10938;44.794;-0.676;2022-12-10T06:47:45;24.33;;;14.65;;
21554;SDS011;10938;44.794;-0.676;2022-12-10T06:50:15;22.35;;;14.75;;
21554;SDS011;10938;44.794;-0.676;2022-12-10T06:52:40;20.77;;;13.50;;
21554;SDS011;10938;44.794;-0.676;2022-12-10T06:55:09;25.50;;;14.57;;
21554;SDS011;10938;44.794;-0.676;2022-12-10T06:57:34;21.13;;;13.40;;
21554;SDS011;10938;44.794;-0.676;2022-12-10T07:00:00;28.75;;;17.42;;
21554;SDS011;10938;44.794;-0.676;2022-12-10T07:02:25;30.50;;;19.30;;
21554;SDS011;10938;44.794;-0.676;2022-12-10T07:04:51;39.97;;;27.15;;
21554;SDS011;10938;44.794;-0.676;2022-12-10T07:07:16;37.38;;;28.95;;
21554;SDS011;10938;44.794;-0.676;2022-12-10T07:09:41;30.48;;;21.95;;
21554;SDS011;10938;44.794;-0.676;2022-12-10T07:12:07;27.48;;;18.95;;
21554;SDS011;10938;44.794;-0.676;2022-12-10T07:14:34;29.83;;;19.90;;
21554;SDS011;10938;44.794;-0.676;2022-12-10T07:17:03;47.50;;;25.70;;
21554;SDS011;10938;44.794;-0.676;2022-12-10T07:19:30;95.53;;;42.13;;
21554;SDS011;10938;44.794;-0.676;2022-12-10T07:21:56;53.28;;;28.83;;
21554;SDS011;10938;44.794;-0.676;2022-12-10T07:24:22;43.60;;;23.95;;
21554;SDS011;10938;44.794;-0.676;2022-12-10T07:26:47;40.92;;;23.33;;
21554;SDS011;10938;44.794;-0.676;2022-12-10T07:29:17;57.60;;;32.80;;
21554;SDS011;10938;44.794;-0.676;2022-12-10T07:31:44;39.08;;;21.88;;
21554;SDS011;10938;44.794;-0.676;2022-12-10T07:34:17;31.75;;;18.80;;
21554;SDS011;10938;44.794;-0.676;2022-12-10T07:36:45;28.67;;;16.97;;
21554;SDS011;10938;44.794;-0.676;2022-12-10T07:39:12;28.63;;;17.17;;
21554;SDS011;10938;44.794;-0.676;2022-12-10T07:41:51;23.77;;;15.23;;
21554;SDS011;10938;44.794;-0.676;2022-12-10T07:44:18;27.92;;;17.25;;
21554;SDS011;10938;44.794;-0.676;2022-12-10T07:46:46;27.45;;;16.33;;
21554;SDS011;10938;44.794;-0.676;2022-12-10T07:49:12;24.45;;;16.38;;
21554;SDS011;10938;44.794;-0.676;2022-12-10T07:51:37;27.73;;;16.98;;
21554;SDS011;10938;44.794;-0.676;2022-12-10T07:54:03;27.08;;;15.25;;
21554;SDS011;10938;44.794;-0.676;2022-12-10T07:56:29;23.63;;;15.45;;
21554;SDS011;10938;44.794;-0.676;2022-12-10T07:58:55;26.50;;;17.40;;
21554;SDS011;10938;44.794;-0.676;2022-12-10T08:01:24;63.05;;;37.85;;
21554;SDS011;10938;44.794;-0.676;2022-12-10T08:03:51;47.28;;;28.45;;
21554;SDS011;10938;44.794;-0.676;2022-12-10T08:06:19;32.97;;;20.52;;
21554;SDS011;10938;44.794;-0.676;2022-12-10T08:08:46;35.35;;;20.98;;
21554;SDS011;10938;44.794;-0.676;2022-12-10T08:11:13;38.38;;;23.13;;
21554;SDS011;10938;44.794;-0.676;2022-12-10T08:13:39;33.60;;;19.98;;
21554;SDS011;10938;44.794;-0.676;2022-12-10T08:16:18;28.95;;;19.17;;
21554;SDS011;10938;44.794;-0.676;2022-12-10T08:18:48;27.92;;;16.77;;
21554;SDS011;10938;44.794;-0.676;2022-12-10T08:21:18;29.90;;;18.65;;
21554;SDS011;10938;44.794;-0.676;2022-12-10T08:23:45;30.92;;;18.58;;
21554;SDS011;10938;44.794;-0.676;2022-12-10T08:26:13;28.45;;;18.30;;
21554;SDS011;10938;44.794;-0.676;2022-12-10T08:28:40;31.65;;;20.58;;
21554;SDS011;10938;44.794;-0.676;2022-12-10T08:31:06;28.38;;;18.45;;
21554;SDS011;10938;44.794;-0.676;2022-12-10T08:33:33;28.70;;;17.45;;
21554;SDS011;10938;44.794;-0.676;2022-12-10T08:36:02;24.95;;;16.52;;
21554;SDS011;10938;44.794;-0.676;2022-12-10T08:38:29;25.15;;;16.42;;
21554;SDS011;10938;44.794;-0.676;2022-12-10T08:40:56;24.77;;;16.35;;
21554;SDS011;10938;44.794;-0.676;2022-12-10T08:43:23;25.75;;;16.98;;
21554;SDS011;10938;44.794;-0.676;2022-12-10T08:45:49;24.17;;;15.32;;
21554;SDS011;10938;44.794;-0.676;2022-12-10T08:48:14;28.27;;;16.00;;
21554;SDS011;10938;44.794;-0.676;2022-12-10T08:50:42;23.45;;;16.02;;
21554;SDS011;10938;44.794;-0.676;2022-12-10T08:53:08;25.88;;;15.68;;
21554;SDS011;10938;44.794;-0.676;2022-12-10T08:55:37;28.23;;;16.52;;
21554;SDS011;10938;44.794;-0.676;2022-12-10T08:58:04;28.25;;;17.77;;
21554;SDS011;10938;44.794;-0.676;2022-12-10T09:00:30;27.95;;;17.30;;
21554;SDS011;10938;44.794;-0.676;2022-12-10T09:02:57;25.05;;;17.40;;
21554;SDS011;10938;44.794;-0.676;2022-12-10T09:05:23;26.60;;;17.77;;
21554;SDS011;10938;44.794;-0.676;2022-12-10T09:07:48;25.83;;;17.48;;
21554;SDS011;10938;44.794;-0.676;2022-12-10T09:10:15;26.33;;;17.67;;
21554;SDS011;10938;44.794;-0.676;2022-12-10T09:12:41;30.05;;;17.73;;
21554;SDS011;10938;44.794;-0.676;2022-12-10T09:15:08;29.48;;;18.40;;
21554;SDS011;10938;44.794;-0.676;2022-12-10T09:17:35;23.00;;;15.68;;
21554;SDS011;10938;44.794;-0.676;2022-12-10T09:20:02;22.27;;;15.32;;
21554;SDS011;10938;44.794;-0.676;2022-12-10T09:22:30;22.60;;;15.27;;
21554;SDS011;10938;44.794;-0.676;2022-12-10T09:24:57;22.52;;;16.63;;
21554;SDS011;10938;44.794;-0.676;2022-12-10T09:27:25;30.55;;;17.77;;
21554;SDS011;10938;44.794;-0.676;2022-12-10T09:29:51;33.75;;;22.95;;
21554;SDS011;10938;44.794;-0.676;2022-12-10T09:32:16;33.03;;;21.60;;
21554;SDS011;10938;44.794;-0.676;2022-12-10T09:34:42;29.35;;;19.63;;
21554;SDS011;10938;44.794;-0.676;2022-12-10T09:37:08;29.65;;;17.65;;
21554;SDS011;10938;44.794;-0.676;2022-12-10T09:39:36;25.50;;;16.38;;
21554;SDS011;10938;44.794;-0.676;2022-12-10T09:47:10;24.15;;;15.77;;
21554;SDS011;10938;44.794;-0.676;2022-12-10T09:52:11;22.83;;;13.77;;
21554;SDS011;10938;44.794;-0.676;2022-12-10T09:54:47;22.70;;;14.18;;
21554;SDS011;10938;44.794;-0.676;2022-12-10T09:57:45;21.95;;;14.10;;
21554;SDS011;10938;44.794;-0.676;2022-12-10T10:03:15;22.85;;;14.48;;
21554;SDS011;10938;44.794;-0.676;2022-12-10T10:05:46;25.00;;;15.10;;
21554;SDS011;10938;44.794;-0.676;2022-12-10T10:11:02;24.55;;;14.30;;
21554;SDS011;10938;44.794;-0.676;2022-12-10T10:13:36;21.60;;;14.20;;
21554;SDS011;10938;44.794;-0.676;2022-12-10T10:18:45;22.13;;;14.30;;
21554;SDS011;10938;44.794;-0.676;2022-12-10T10:21:21;21.92;;;14.15;;
21554;SDS011;10938;44.794;-0.676;2022-12-10T10:23:48;20.48;;;13.30;;
21554;SDS011;10938;44.794;-0.676;2022-12-10T10:26:15;24.45;;;13.20;;
21554;SDS011;10938;44.794;-0.676;2022-12-10T10:28:41;22.98;;;13.40;;
21554;SDS011;10938;44.794;-0.676;2022-12-10T10:31:22;24.17;;;14.23;;
21554;SDS011;10938;44.794;-0.676;2022-12-10T10:33:53;23.08;;;14.38;;
21554;SDS011;10938;44.794;-0.676;2022-12-10T10:36:27;22.58;;;14.55;;
21554;SDS011;10938;44.794;-0.676;2022-12-10T10:39:07;23.57;;;15.00;;
21554;SDS011;10938;44.794;-0.676;2022-12-10T10:41:49;26.75;;;15.23;;
21554;SDS011;10938;44.794;-0.676;2022-12-10T10:44:20;22.73;;;15.35;;
21554;SDS011;10938;44.794;-0.676;2022-12-10T10:46:49;24.98;;;15.57;;
21554;SDS011;10938;44.794;-0.676;2022-12-10T10:51:48;23.17;;;16.02;;
21554;SDS011;10938;44.794;-0.676;2022-12-10T10:59:51;24.90;;;15.35;;
21554;SDS011;10938;44.794;-0.676;2022-12-10T11:02:33;21.55;;;14.15;;
21554;SDS011;10938;44.794;-0.676;2022-12-10T11:05:14;21.25;;;13.50;;
21554;SDS011;10938;44.794;-0.676;2022-12-10T11:07:44;25.58;;;15.32;;
21554;SDS011;10938;44.794;-0.676;2022-12-10T11:10:22;25.75;;;15.20;;
21554;SDS011;10938;44.794;-0.676;2022-12-10T11:12:57;24.08;;;14.07;;
21554;SDS011;10938;44.794;-0.676;2022-12-10T11:15:41;22.70;;;14.48;;
21554;SDS011;10938;44.794;-0.676;2022-12-10T11:21:04;27.60;;;17.38;;
21554;SDS011;10938;44.794;-0.676;2022-12-10T11:23:39;32.65;;;18.55;;
21554;SDS011;10938;44.794;-0.676;2022-12-10T11:28:55;32.13;;;19.20;;
21554;SDS011;10938;44.794;-0.676;2022-12-10T11:34:48;35.55;;;20.13;;
21554;SDS011;10938;44.794;-0.676;2022-12-10T11:37:24;27.35;;;18.00;;
21554;SDS011;10938;44.794;-0.676;2022-12-10T11:40:06;29.33;;;18.60;;
21554;SDS011;10938;44.794;-0.676;2022-12-10T11:59:04;33.90;;;20.67;;
21554;SDS011;10938;44.794;-0.676;2022-12-10T12:01:57;33.78;;;20.73;;
21554;SDS011;10938;44.794;-0.676;2022-12-10T12:04:40;28.35;;;19.90;;
21554;SDS011;10938;44.794;-0.676;2022-12-10T12:09:55;28.15;;;18.55;;
21554;SDS011;10938;44.794;-0.676;2022-12-10T12:12:49;30.23;;;19.92;;
21554;SDS011;10938;44.794;-0.676;2022-12-10T12:15:29;28.35;;;17.98;;
21554;SDS011;10938;44.794;-0.676;2022-12-10T12:18:08;29.58;;;19.38;;
21554;SDS011;10938;44.794;-0.676;2022-12-10T12:20:45;31.42;;;20.63;;
21554;SDS011;10938;44.794;-0.676;2022-12-10T12:25:47;33.92;;;20.77;;
21554;SDS011;10938;44.794;-0.676;2022-12-10T12:31:13;28.50;;;17.27;;
21554;SDS011;10938;44.794;-0.676;2022-12-10T12:36:27;25.33;;;15.90;;
21554;SDS011;10938;44.794;-0.676;2022-12-10T12:39:01;31.25;;;16.15;;
21554;SDS011;10938;44.794;-0.676;2022-12-10T12:47:59;27.02;;;17.58;;
21554;SDS011;10938;44.794;-0.676;2022-12-10T12:53:13;27.23;;;16.98;;
21554;SDS011;10938;44.794;-0.676;2022-12-10T13:04:12;33.25;;;20.45;;
21554;SDS011;10938;44.794;-0.676;2022-12-10T13:06:39;31.15;;;19.38;;
21554;SDS011;10938;44.794;-0.676;2022-12-10T13:11:38;23.38;;;15.25;;
21554;SDS011;10938;44.794;-0.676;2022-12-10T13:24:20;27.52;;;17.73;;
21554;SDS011;10938;44.794;-0.676;2022-12-10T13:34:43;26.15;;;16.45;;
21554;SDS011;10938;44.794;-0.676;2022-12-10T13:39:47;30.73;;;19.67;;
21554;SDS011;10938;44.794;-0.676;2022-12-10T13:42:26;25.88;;;16.50;;
21554;SDS011;10938;44.794;-0.676;2022-12-10T13:47:48;23.75;;;16.73;;
21554;SDS011;10938;44.794;-0.676;2022-12-10T13:53:19;27.88;;;16.48;;
21554;SDS011;10938;44.794;-0.676;2022-12-10T14:02:35;46.83;;;28.13;;
21554;SDS011;10938;44.794;-0.676;2022-12-10T14:08:03;35.70;;;22.48;;
21554;SDS011;10938;44.794;-0.676;2022-12-10T14:10:31;38.33;;;23.50;;
21554;SDS011;10938;44.794;-0.676;2022-12-10T14:13:00;40.20;;;23.55;;
21554;SDS011;10938;44.794;-0.676;2022-12-10T14:15:28;31.65;;;19.92;;
21554;SDS011;10938;44.794;-0.676;2022-12-10T14:20:48;35.53;;;23.08;;
21554;SDS011;10938;44.794;-0.676;2022-12-10T14:23:27;29.77;;;20.55;;
21554;SDS011;10938;44.794;-0.676;2022-12-10T14:26:12;30.92;;;19.15;;
21554;SDS011;10938;44.794;-0.676;2022-12-10T14:28:41;30.05;;;19.70;;
21554;SDS011;10938;44.794;-0.676;2022-12-10T14:31:14;30.73;;;19.58;;
21554;SDS011;10938;44.794;-0.676;2022-12-10T14:33:43;23.27;;;15.18;;
21554;SDS011;10938;44.794;-0.676;2022-12-10T14:36:15;22.83;;;16.05;;
21554;SDS011;10938;44.794;-0.676;2022-12-10T14:38:45;24.38;;;14.93;;
21554;SDS011;10938;44.794;-0.676;2022-12-10T14:41:14;23.73;;;15.45;;
21554;SDS011;10938;44.794;-0.676;2022-12-10T14:43:43;27.90;;;17.58;;
21554;SDS011;10938;44.794;-0.676;2022-12-10T14:46:13;29.23;;;16.48;;
21554;SDS011;10938;44.794;-0.676;2022-12-10T14:48:47;27.38;;;17.05;;
21554;SDS011;10938;44.794;-0.676;2022-12-10T14:51:16;34.58;;;17.83;;
21554;SDS011;10938;44.794;-0.676;2022-12-10T14:53:45;24.35;;;16.23;;
21554;SDS011;10938;44.794;-0.676;2022-12-10T14:56:14;29.63;;;17.27;;
21554;SDS011;10938;44.794;-0.676;2022-12-10T15:01:28;28.70;;;18.52;;
21554;SDS011;10938;44.794;-0.676;2022-12-10T15:03:56;26.10;;;16.80;;
21554;SDS011;10938;44.794;-0.676;2022-12-10T15:06:25;27.90;;;15.75;;
21554;SDS011;10938;44.794;-0.676;2022-12-10T15:08:53;23.42;;;14.50;;
21554;SDS011;10938;44.794;-0.676;2022-12-10T15:11:20;23.13;;;14.80;;
21554;SDS011;10938;44.794;-0.676;2022-12-10T15:13:47;24.63;;;15.13;;
21554;SDS011;10938;44.794;-0.676;2022-12-10T15:16:20;24.50;;;15.77;;
21554;SDS011;10938;44.794;-0.676;2022-12-10T15:18:52;22.60;;;15.13;;
21554;SDS011;10938;44.794;-0.676;2022-12-10T15:21:20;23.83;;;15.65;;
21554;SDS011;10938;44.794;-0.676;2022-12-10T15:23:48;25.25;;;15.25;;
21554;SDS011;10938;44.794;-0.676;2022-12-10T15:26:32;21.88;;;14.85;;
21554;SDS011;10938;44.794;-0.676;2022-12-10T15:32:10;22.92;;;14.93;;
21554;SDS011;10938;44.794;-0.676;2022-12-10T15:34:49;25.42;;;16.48;;
21554;SDS011;10938;44.794;-0.676;2022-12-10T15:37:23;28.15;;;17.02;;
21554;SDS011;10938;44.794;-0.676;2022-12-10T15:39:54;23.30;;;15.00;;
21554;SDS011;10938;44.794;-0.676;2022-12-10T15:42:30;27.95;;;15.57;;
21554;SDS011;10938;44.794;-0.676;2022-12-10T15:45:08;22.10;;;13.82;;
21554;SDS011;10938;44.794;-0.676;2022-12-10T15:47:50;22.25;;;14.15;;
21554;SDS011;10938;44.794;-0.676;2022-12-10T15:50:17;23.23;;;15.07;;
21554;SDS011;10938;44.794;-0.676;2022-12-10T15:52:43;27.60;;;14.25;;
21554;SDS011;10938;44.794;-0.676;2022-12-10T15:55:10;20.52;;;13.95;;
21554;SDS011;10938;44.794;-0.676;2022-12-10T15:57:39;22.13;;;13.63;;
21554;SDS011;10938;44.794;-0.676;2022-12-10T16:00:15;24.65;;;16.42;;
21554;SDS011;10938;44.794;-0.676;2022-12-10T16:05:42;25.23;;;16.35;;
21554;SDS011;10938;44.794;-0.676;2022-12-10T16:08:15;28.98;;;18.30;;
21554;SDS011;10938;44.794;-0.676;2022-12-10T16:10:52;27.75;;;17.45;;
21554;SDS011;10938;44.794;-0.676;2022-12-10T16:13:22;24.15;;;15.25;;
21554;SDS011;10938;44.794;-0.676;2022-12-10T16:18:17;24.92;;;15.07;;
21554;SDS011;10938;44.794;-0.676;2022-12-10T16:20:43;19.73;;;14.00;;
21554;SDS011;10938;44.794;-0.676;2022-12-10T16:23:10;21.08;;;14.05;;
21554;SDS011;10938;44.794;-0.676;2022-12-10T16:25:37;23.80;;;14.68;;
21554;SDS011;10938;44.794;-0.676;2022-12-10T16:28:08;24.00;;;14.38;;
21554;SDS011;10938;44.794;-0.676;2022-12-10T16:30:38;24.75;;;16.20;;
21554;SDS011;10938;44.794;-0.676;2022-12-10T16:33:08;23.23;;;15.30;;
21554;SDS011;10938;44.794;-0.676;2022-12-10T16:35:33;30.13;;;18.50;;
21554;SDS011;10938;44.794;-0.676;2022-12-10T16:37:59;32.42;;;21.52;;
21554;SDS011;10938;44.794;-0.676;2022-12-10T16:40:26;31.67;;;20.35;;
21554;SDS011;10938;44.794;-0.676;2022-12-10T16:42:53;33.08;;;20.40;;
21554;SDS011;10938;44.794;-0.676;2022-12-10T16:45:24;33.08;;;21.83;;